sensor_id;sensor_type;location;lat;lon;timestamp;temperature;humidity
17346;DHT22;8790;53.590;10.002;2022-10-14T00:01:54;13.50;99.90
17346;DHT22;8790;53.590;10.002;2022-10-14T00:04:25;13.50;99.90
17346;DHT22;8790;53.590;10.002;2022-10-14T00:06:59;13.50;99.90
17346;DHT22;8790;53.590;10.002;2022-10-14T00:09:31;13.50;99.90
17346;DHT22;8790;53.590;10.002;2022-10-14T00:12:03;13.50;99.90
17346;DHT22;8790;53.590;10.002;2022-10-14T00:14:36;13.40;99.90
17346;DHT22;8790;53.590;10.002;2022-10-14T00:17:07;13.40;99.90
17346;DHT22;8790;53.590;10.002;2022-10-14T00:19:39;13.50;99.90
17346;DHT22;8790;53.590;10.002;2022-10-14T00:22:11;13.50;99.90
17346;DHT22;8790;53.590;10.002;2022-10-14T00:24:43;13.50;99.90
17346;DHT22;8790;53.590;10.002;2022-10-14T00:27:15;13.50;99.90
17346;DHT22;8790;53.590;10.002;2022-10-14T00:29:48;13.50;99.90
17346;DHT22;8790;53.590;10.002;2022-10-14T00:32:20;13.40;99.90
17346;DHT22;8790;53.590;10.002;2022-10-14T00:34:55;13.50;99.90
17346;DHT22;8790;53.590;10.002;2022-10-14T00:37:27;13.50;99.90
17346;DHT22;8790;53.590;10.002;2022-10-14T00:40:00;13.50;99.90
17346;DHT22;8790;53.590;10.002;2022-10-14T00:42:32;13.40;99.90
17346;DHT22;8790;53.590;10.002;2022-10-14T00:45:12;13.50;99.90
17346;DHT22;8790;53.590;10.002;2022-10-14T00:47:44;13.40;99.90
17346;DHT22;8790;53.590;10.002;2022-10-14T00:50:16;13.50;99.90
17346;DHT22;8790;53.590;10.002;2022-10-14T00:52:48;13.50;99.90
17346;DHT22;8790;53.590;10.002;2022-10-14T00:55:20;13.50;99.90
17346;DHT22;8790;53.590;10.002;2022-10-14T00:57:52;13.40;99.90
17346;DHT22;8790;53.590;10.002;2022-10-14T01:00:25;13.40;99.90
17346;DHT22;8790;53.590;10.002;2022-10-14T01:02:57;13.50;99.90
17346;DHT22;8790;53.590;10.002;2022-10-14T01:05:32;13.40;99.90
17346;DHT22;8790;53.590;10.002;2022-10-14T01:08:08;13.40;99.90
17346;DHT22;8790;53.590;10.002;2022-10-14T01:10:46;13.50;99.90
17346;DHT22;8790;53.590;10.002;2022-10-14T01:13:25;13.50;99.90
17346;DHT22;8790;53.590;10.002;2022-10-14T01:16:10;13.50;99.90
17346;DHT22;8790;53.590;10.002;2022-10-14T01:19:03;13.50;99.90
17346;DHT22;8790;53.590;10.002;2022-10-14T01:21:41;13.50;99.90
17346;DHT22;8790;53.590;10.002;2022-10-14T01:24:41;13.50;99.90
17346;DHT22;8790;53.590;10.002;2022-10-14T01:30:11;13.50;99.90
17346;DHT22;8790;53.590;10.002;2022-10-14T01:33:08;13.50;99.90
17346;DHT22;8790;53.590;10.002;2022-10-14T01:35:52;13.50;99.90
17346;DHT22;8790;53.590;10.002;2022-10-14T01:38:29;13.50;99.90
17346;DHT22;8790;53.590;10.002;2022-10-14T01:41:08;13.50;99.90
17346;DHT22;8790;53.590;10.002;2022-10-14T01:43:45;13.50;99.90
17346;DHT22;8790;53.590;10.002;2022-10-14T01:46:22;13.50;99.90
17346;DHT22;8790;53.590;10.002;2022-10-14T01:49:00;13.50;99.90
17346;DHT22;8790;53.590;10.002;2022-10-14T01:51:38;13.50;99.90
17346;DHT22;8790;53.590;10.002;2022-10-14T01:54:14;13.50;99.90
17346;DHT22;8790;53.590;10.002;2022-10-14T01:56:48;13.50;99.90
17346;DHT22;8790;53.590;10.002;2022-10-14T01:59:23;13.50;99.90
17346;DHT22;8790;53.590;10.002;2022-10-14T02:01:56;13.50;99.90
17346;DHT22;8790;53.590;10.002;2022-10-14T02:04:28;13.40;99.90
17346;DHT22;8790;53.590;10.002;2022-10-14T02:07:04;13.50;99.90
17346;DHT22;8790;53.590;10.002;2022-10-14T02:09:42;13.50;99.90
17346;DHT22;8790;53.590;10.002;2022-10-14T02:12:26;13.40;99.90
17346;DHT22;8790;53.590;10.002;2022-10-14T02:15:06;13.40;99.90
17346;DHT22;8790;53.590;10.002;2022-10-14T02:17:48;13.40;99.90
17346;DHT22;8790;53.590;10.002;2022-10-14T02:20:24;13.40;99.90
17346;DHT22;8790;53.590;10.002;2022-10-14T02:23:01;13.40;99.90
17346;DHT22;8790;53.590;10.002;2022-10-14T02:25:37;13.40;99.90
17346;DHT22;8790;53.590;10.002;2022-10-14T02:28:13;13.50;99.90
17346;DHT22;8790;53.590;10.002;2022-10-14T02:30:50;13.50;99.90
17346;DHT22;8790;53.590;10.002;2022-10-14T02:33:27;13.50;99.90
17346;DHT22;8790;53.590;10.002;2022-10-14T02:36:04;13.50;99.90
17346;DHT22;8790;53.590;10.002;2022-10-14T02:38:40;13.40;99.90
17346;DHT22;8790;53.590;10.002;2022-10-14T02:41:14;13.50;99.90
17346;DHT22;8790;53.590;10.002;2022-10-14T02:43:47;13.40;99.90
17346;DHT22;8790;53.590;10.002;2022-10-14T02:46:20;13.40;99.90
17346;DHT22;8790;53.590;10.002;2022-10-14T02:48:53;13.40;99.90
17346;DHT22;8790;53.590;10.002;2022-10-14T02:51:25;13.40;99.90
17346;DHT22;8790;53.590;10.002;2022-10-14T02:53:57;13.40;99.90
17346;DHT22;8790;53.590;10.002;2022-10-14T02:56:31;13.30;99.90
17346;DHT22;8790;53.590;10.002;2022-10-14T02:59:04;13.40;99.90
17346;DHT22;8790;53.590;10.002;2022-10-14T03:01:36;13.40;99.90
17346;DHT22;8790;53.590;10.002;2022-10-14T03:04:10;13.40;99.90
17346;DHT22;8790;53.590;10.002;2022-10-14T03:06:42;13.40;99.90
17346;DHT22;8790;53.590;10.002;2022-10-14T03:09:15;13.40;99.90
17346;DHT22;8790;53.590;10.002;2022-10-14T03:11:48;13.40;99.90
17346;DHT22;8790;53.590;10.002;2022-10-14T03:14:23;13.30;99.90
17346;DHT22;8790;53.590;10.002;2022-10-14T03:16:56;13.40;99.90
17346;DHT22;8790;53.590;10.002;2022-10-14T03:19:30;13.40;99.90
17346;DHT22;8790;53.590;10.002;2022-10-14T03:22:02;13.40;99.90
17346;DHT22;8790;53.590;10.002;2022-10-14T03:24:35;13.40;99.90
17346;DHT22;8790;53.590;10.002;2022-10-14T03:27:36;13.40;99.90
17346;DHT22;8790;53.590;10.002;2022-10-14T03:30:13;13.40;99.90
17346;DHT22;8790;53.590;10.002;2022-10-14T03:32:59;13.40;99.90
17346;DHT22;8790;53.590;10.002;2022-10-14T03:35:58;13.40;99.90
17346;DHT22;8790;53.590;10.002;2022-10-14T03:38:43;13.40;99.90
17346;DHT22;8790;53.590;10.002;2022-10-14T03:41:24;13.40;99.90
17346;DHT22;8790;53.590;10.002;2022-10-14T03:43:56;13.40;99.90
17346;DHT22;8790;53.590;10.002;2022-10-14T03:46:29;13.40;99.90
17346;DHT22;8790;53.590;10.002;2022-10-14T03:49:01;13.40;99.90
17346;DHT22;8790;53.590;10.002;2022-10-14T03:51:35;13.40;99.90
17346;DHT22;8790;53.590;10.002;2022-10-14T03:54:17;13.40;99.90
17346;DHT22;8790;53.590;10.002;2022-10-14T03:56:49;13.40;99.90
17346;DHT22;8790;53.590;10.002;2022-10-14T03:59:23;13.40;99.90
17346;DHT22;8790;53.590;10.002;2022-10-14T04:01:57;13.40;99.90
17346;DHT22;8790;53.590;10.002;2022-10-14T04:04:29;13.40;99.90
17346;DHT22;8790;53.590;10.002;2022-10-14T04:07:04;13.40;99.90
17346;DHT22;8790;53.590;10.002;2022-10-14T04:09:37;13.40;99.90
17346;DHT22;8790;53.590;10.002;2022-10-14T04:12:10;13.40;99.90
17346;DHT22;8790;53.590;10.002;2022-10-14T04:14:58;13.40;99.90
17346;DHT22;8790;53.590;10.002;2022-10-14T04:17:34;13.40;99.90
17346;DHT22;8790;53.590;10.002;2022-10-14T04:20:13;13.40;99.90
17346;DHT22;8790;53.590;10.002;2022-10-14T04:22:47;13.40;99.90
17346;DHT22;8790;53.590;10.002;2022-10-14T04:25:21;13.40;99.90
17346;DHT22;8790;53.590;10.002;2022-10-14T04:27:57;13.40;99.90
17346;DHT22;8790;53.590;10.002;2022-10-14T04:30:39;13.40;99.90
17346;DHT22;8790;53.590;10.002;2022-10-14T04:33:15;13.40;99.90
17346;DHT22;8790;53.590;10.002;2022-10-14T04:35:46;13.40;99.90
17346;DHT22;8790;53.590;10.002;2022-10-14T04:38:27;13.40;99.90
17346;DHT22;8790;53.590;10.002;2022-10-14T04:41:06;13.40;99.90
17346;DHT22;8790;53.590;10.002;2022-10-14T04:43:38;13.40;99.90
17346;DHT22;8790;53.590;10.002;2022-10-14T04:46:26;13.40;99.90
17346;DHT22;8790;53.590;10.002;2022-10-14T04:48:58;13.40;99.90
17346;DHT22;8790;53.590;10.002;2022-10-14T04:51:36;13.40;99.90
17346;DHT22;8790;53.590;10.002;2022-10-14T04:54:23;13.40;99.90
17346;DHT22;8790;53.590;10.002;2022-10-14T04:56:57;13.40;99.90
17346;DHT22;8790;53.590;10.002;2022-10-14T04:59:29;13.40;99.90
17346;DHT22;8790;53.590;10.002;2022-10-14T05:02:16;13.40;99.90
17346;DHT22;8790;53.590;10.002;2022-10-14T05:04:54;13.40;99.90
17346;DHT22;8790;53.590;10.002;2022-10-14T05:07:27;13.40;99.90
17346;DHT22;8790;53.590;10.002;2022-10-14T05:10:09;13.40;99.90
17346;DHT22;8790;53.590;10.002;2022-10-14T05:12:45;13.40;99.90
17346;DHT22;8790;53.590;10.002;2022-10-14T05:15:17;13.40;99.90
17346;DHT22;8790;53.590;10.002;2022-10-14T05:18:01;13.50;99.90
17346;DHT22;8790;53.590;10.002;2022-10-14T05:20:59;13.40;99.90
17346;DHT22;8790;53.590;10.002;2022-10-14T05:23:45;13.40;99.90
17346;DHT22;8790;53.590;10.002;2022-10-14T05:26:18;13.40;99.90
17346;DHT22;8790;53.590;10.002;2022-10-14T05:28:52;13.40;99.90
17346;DHT22;8790;53.590;10.002;2022-10-14T05:31:24;13.40;99.90
17346;DHT22;8790;53.590;10.002;2022-10-14T05:34:14;13.40;99.90
17346;DHT22;8790;53.590;10.002;2022-10-14T05:36:46;13.40;99.90
17346;DHT22;8790;53.590;10.002;2022-10-14T05:39:19;13.40;99.90
17346;DHT22;8790;53.590;10.002;2022-10-14T05:41:53;13.50;99.90
17346;DHT22;8790;53.590;10.002;2022-10-14T05:44:29;13.50;99.90
17346;DHT22;8790;53.590;10.002;2022-10-14T05:47:01;13.40;99.90
17346;DHT22;8790;53.590;10.002;2022-10-14T05:49:33;13.50;99.90
17346;DHT22;8790;53.590;10.002;2022-10-14T05:52:07;13.40;99.90
17346;DHT22;8790;53.590;10.002;2022-10-14T05:54:39;13.50;99.90
17346;DHT22;8790;53.590;10.002;2022-10-14T05:57:13;13.40;99.90
17346;DHT22;8790;53.590;10.002;2022-10-14T05:59:45;13.40;99.90
17346;DHT22;8790;53.590;10.002;2022-10-14T06:02:18;13.40;99.90
17346;DHT22;8790;53.590;10.002;2022-10-14T06:04:50;13.40;99.90
17346;DHT22;8790;53.590;10.002;2022-10-14T06:07:23;13.50;99.90
17346;DHT22;8790;53.590;10.002;2022-10-14T06:09:54;13.50;99.90
17346;DHT22;8790;53.590;10.002;2022-10-14T06:12:27;13.50;99.90
17346;DHT22;8790;53.590;10.002;2022-10-14T06:14:59;13.50;99.90
17346;DHT22;8790;53.590;10.002;2022-10-14T06:17:31;13.50;99.90
17346;DHT22;8790;53.590;10.002;2022-10-14T06:20:03;13.40;99.90
17346;DHT22;8790;53.590;10.002;2022-10-14T06:22:35;13.50;99.90
17346;DHT22;8790;53.590;10.002;2022-10-14T06:25:07;13.50;99.90
17346;DHT22;8790;53.590;10.002;2022-10-14T06:27:41;13.50;99.90
17346;DHT22;8790;53.590;10.002;2022-10-14T06:30:12;13.50;99.90
17346;DHT22;8790;53.590;10.002;2022-10-14T06:32:44;13.50;99.90
17346;DHT22;8790;53.590;10.002;2022-10-14T06:35:16;13.50;99.90
17346;DHT22;8790;53.590;10.002;2022-10-14T06:37:48;13.50;99.90
17346;DHT22;8790;53.590;10.002;2022-10-14T06:40:20;13.50;99.90
17346;DHT22;8790;53.590;10.002;2022-10-14T06:42:53;13.40;99.90
17346;DHT22;8790;53.590;10.002;2022-10-14T06:45:24;13.40;99.90
17346;DHT22;8790;53.590;10.002;2022-10-14T06:47:56;13.40;99.90
17346;DHT22;8790;53.590;10.002;2022-10-14T06:50:28;13.40;99.90
17346;DHT22;8790;53.590;10.002;2022-10-14T06:53:00;13.40;99.90
17346;DHT22;8790;53.590;10.002;2022-10-14T06:55:31;13.40;99.90
17346;DHT22;8790;53.590;10.002;2022-10-14T06:58:05;13.40;99.90
17346;DHT22;8790;53.590;10.002;2022-10-14T07:00:36;13.40;99.90
17346;DHT22;8790;53.590;10.002;2022-10-14T07:03:08;13.50;99.90
17346;DHT22;8790;53.590;10.002;2022-10-14T07:05:40;13.40;99.90
17346;DHT22;8790;53.590;10.002;2022-10-14T07:08:12;13.40;99.90
17346;DHT22;8790;53.590;10.002;2022-10-14T07:10:45;13.50;99.90
17346;DHT22;8790;53.590;10.002;2022-10-14T07:13:19;13.50;99.90
17346;DHT22;8790;53.590;10.002;2022-10-14T07:15:50;13.40;99.90
17346;DHT22;8790;53.590;10.002;2022-10-14T07:18:22;13.40;99.90
17346;DHT22;8790;53.590;10.002;2022-10-14T07:20:54;13.40;99.90
17346;DHT22;8790;53.590;10.002;2022-10-14T07:23:26;13.50;99.90
17346;DHT22;8790;53.590;10.002;2022-10-14T07:25:58;13.50;99.90
17346;DHT22;8790;53.590;10.002;2022-10-14T07:28:32;13.50;99.90
17346;DHT22;8790;53.590;10.002;2022-10-14T07:31:07;13.50;99.90
17346;DHT22;8790;53.590;10.002;2022-10-14T07:33:39;13.50;99.90
17346;DHT22;8790;53.590;10.002;2022-10-14T07:36:13;13.50;99.90
17346;DHT22;8790;53.590;10.002;2022-10-14T07:38:45;13.50;99.90
17346;DHT22;8790;53.590;10.002;2022-10-14T07:41:19;13.50;99.90
17346;DHT22;8790;53.590;10.002;2022-10-14T07:43:54;13.50;99.90
17346;DHT22;8790;53.590;10.002;2022-10-14T07:46:28;13.50;99.90
17346;DHT22;8790;53.590;10.002;2022-10-14T07:49:03;13.60;99.90
17346;DHT22;8790;53.590;10.002;2022-10-14T07:51:36;13.50;99.90
17346;DHT22;8790;53.590;10.002;2022-10-14T07:54:12;13.60;99.90
17346;DHT22;8790;53.590;10.002;2022-10-14T07:56:45;13.60;99.90
17346;DHT22;8790;53.590;10.002;2022-10-14T07:59:20;13.50;99.90
17346;DHT22;8790;53.590;10.002;2022-10-14T08:01:52;13.60;99.90
17346;DHT22;8790;53.590;10.002;2022-10-14T08:04:25;13.60;99.90
17346;DHT22;8790;53.590;10.002;2022-10-14T08:06:57;13.60;99.90
17346;DHT22;8790;53.590;10.002;2022-10-14T08:09:29;13.50;99.90
17346;DHT22;8790;53.590;10.002;2022-10-14T08:12:01;13.60;99.90
17346;DHT22;8790;53.590;10.002;2022-10-14T08:14:34;13.60;99.90
17346;DHT22;8790;53.590;10.002;2022-10-14T08:17:06;13.60;99.90
17346;DHT22;8790;53.590;10.002;2022-10-14T08:19:38;13.60;99.90
17346;DHT22;8790;53.590;10.002;2022-10-14T08:22:09;13.60;99.90
17346;DHT22;8790;53.590;10.002;2022-10-14T08:24:41;13.70;99.90
17346;DHT22;8790;53.590;10.002;2022-10-14T08:27:13;13.70;99.90
17346;DHT22;8790;53.590;10.002;2022-10-14T08:29:47;13.60;99.90
17346;DHT22;8790;53.590;10.002;2022-10-14T08:32:18;13.70;99.90
17346;DHT22;8790;53.590;10.002;2022-10-14T08:34:50;13.70;99.90
17346;DHT22;8790;53.590;10.002;2022-10-14T08:37:22;13.70;99.90
17346;DHT22;8790;53.590;10.002;2022-10-14T08:39:54;13.70;99.90
17346;DHT22;8790;53.590;10.002;2022-10-14T08:42:36;13.70;99.90
17346;DHT22;8790;53.590;10.002;2022-10-14T08:45:18;13.70;99.90
17346;DHT22;8790;53.590;10.002;2022-10-14T08:47:52;13.70;99.90
17346;DHT22;8790;53.590;10.002;2022-10-14T08:50:31;13.70;99.90
17346;DHT22;8790;53.590;10.002;2022-10-14T08:53:08;13.70;99.90
17346;DHT22;8790;53.590;10.002;2022-10-14T08:55:45;13.80;99.90
17346;DHT22;8790;53.590;10.002;2022-10-14T08:58:22;13.80;99.90
17346;DHT22;8790;53.590;10.002;2022-10-14T09:00:58;13.80;99.90
17346;DHT22;8790;53.590;10.002;2022-10-14T09:03:31;13.90;99.90
17346;DHT22;8790;53.590;10.002;2022-10-14T09:06:06;13.90;99.90
17346;DHT22;8790;53.590;10.002;2022-10-14T09:08:43;13.90;99.90
17346;DHT22;8790;53.590;10.002;2022-10-14T09:11:17;13.90;99.90
17346;DHT22;8790;53.590;10.002;2022-10-14T09:13:52;14.00;99.90
17346;DHT22;8790;53.590;10.002;2022-10-14T09:16:29;14.00;99.90
17346;DHT22;8790;53.590;10.002;2022-10-14T09:19:04;14.00;99.90
17346;DHT22;8790;53.590;10.002;2022-10-14T09:21:38;14.00;99.90
17346;DHT22;8790;53.590;10.002;2022-10-14T09:24:12;14.10;99.90
17346;DHT22;8790;53.590;10.002;2022-10-14T09:26:46;14.10;99.90
17346;DHT22;8790;53.590;10.002;2022-10-14T09:29:24;14.10;99.90
17346;DHT22;8790;53.590;10.002;2022-10-14T09:32:01;14.10;99.90
17346;DHT22;8790;53.590;10.002;2022-10-14T09:34:36;14.10;99.90
17346;DHT22;8790;53.590;10.002;2022-10-14T09:37:30;14.10;99.90
17346;DHT22;8790;53.590;10.002;2022-10-14T09:40:08;14.20;99.90
17346;DHT22;8790;53.590;10.002;2022-10-14T09:42:48;14.20;99.90
17346;DHT22;8790;53.590;10.002;2022-10-14T09:45:22;14.20;99.90
17346;DHT22;8790;53.590;10.002;2022-10-14T09:47:58;14.20;99.90
17346;DHT22;8790;53.590;10.002;2022-10-14T09:50:35;14.20;99.90
17346;DHT22;8790;53.590;10.002;2022-10-14T09:53:15;14.30;99.90
17346;DHT22;8790;53.590;10.002;2022-10-14T09:55:49;14.30;99.90
17346;DHT22;8790;53.590;10.002;2022-10-14T09:58:28;14.30;99.90
17346;DHT22;8790;53.590;10.002;2022-10-14T10:01:01;14.30;99.90
17346;DHT22;8790;53.590;10.002;2022-10-14T10:03:34;14.30;99.90
17346;DHT22;8790;53.590;10.002;2022-10-14T10:06:08;14.30;99.90
17346;DHT22;8790;53.590;10.002;2022-10-14T10:08:54;14.40;99.90
17346;DHT22;8790;53.590;10.002;2022-10-14T10:11:27;14.40;99.90
17346;DHT22;8790;53.590;10.002;2022-10-14T10:14:15;14.40;99.90
17346;DHT22;8790;53.590;10.002;2022-10-14T10:16:47;14.40;99.90
17346;DHT22;8790;53.590;10.002;2022-10-14T10:19:26;14.50;99.90
17346;DHT22;8790;53.590;10.002;2022-10-14T10:22:18;14.50;99.90
17346;DHT22;8790;53.590;10.002;2022-10-14T10:25:18;14.50;99.90
17346;DHT22;8790;53.590;10.002;2022-10-14T10:27:50;14.40;99.90
17346;DHT22;8790;53.590;10.002;2022-10-14T10:30:26;14.40;99.90
17346;DHT22;8790;53.590;10.002;2022-10-14T10:33:08;14.40;99.90
17346;DHT22;8790;53.590;10.002;2022-10-14T10:36:10;14.40;99.90
17346;DHT22;8790;53.590;10.002;2022-10-14T10:38:56;14.40;99.90
17346;DHT22;8790;53.590;10.002;2022-10-14T10:41:42;14.40;99.90
17346;DHT22;8790;53.590;10.002;2022-10-14T10:47:27;14.30;99.90
17346;DHT22;8790;53.590;10.002;2022-10-14T10:50:22;14.40;99.90
17346;DHT22;8790;53.590;10.002;2022-10-14T10:53:25;14.50;99.90
17346;DHT22;8790;53.590;10.002;2022-10-14T10:56:10;14.40;99.90
17346;DHT22;8790;53.590;10.002;2022-10-14T10:58:56;14.40;99.90
17346;DHT22;8790;53.590;10.002;2022-10-14T11:01:36;14.40;99.90
17346;DHT22;8790;53.590;10.002;2022-10-14T11:04:21;14.40;99.90
17346;DHT22;8790;53.590;10.002;2022-10-14T11:07:04;14.40;99.90
17346;DHT22;8790;53.590;10.002;2022-10-14T11:10:03;14.50;99.90
17346;DHT22;8790;53.590;10.002;2022-10-14T11:12:58;14.50;99.90
17346;DHT22;8790;53.590;10.002;2022-10-14T11:15:40;14.50;99.90
17346;DHT22;8790;53.590;10.002;2022-10-14T11:18:17;14.40;99.90
17346;DHT22;8790;53.590;10.002;2022-10-14T11:21:03;14.40;99.90
17346;DHT22;8790;53.590;10.002;2022-10-14T11:23:46;14.40;99.90
17346;DHT22;8790;53.590;10.002;2022-10-14T11:26:38;14.40;99.90
17346;DHT22;8790;53.590;10.002;2022-10-14T11:29:24;14.40;99.90
17346;DHT22;8790;53.590;10.002;2022-10-14T11:32:07;14.30;99.90
17346;DHT22;8790;53.590;10.002;2022-10-14T11:34:51;14.30;99.90
17346;DHT22;8790;53.590;10.002;2022-10-14T11:37:29;14.30;99.90
17346;DHT22;8790;53.590;10.002;2022-10-14T11:40:14;14.30;99.90
17346;DHT22;8790;53.590;10.002;2022-10-14T11:42:56;14.30;99.90
17346;DHT22;8790;53.590;10.002;2022-10-14T11:45:41;14.30;99.90
17346;DHT22;8790;53.590;10.002;2022-10-14T11:48:30;14.30;99.90
17346;DHT22;8790;53.590;10.002;2022-10-14T11:51:08;14.30;99.90
17346;DHT22;8790;53.590;10.002;2022-10-14T11:53:48;14.30;99.90
17346;DHT22;8790;53.590;10.002;2022-10-14T11:56:29;14.30;99.90
17346;DHT22;8790;53.590;10.002;2022-10-14T11:59:19;14.30;99.90
17346;DHT22;8790;53.590;10.002;2022-10-14T12:01:58;14.30;99.90
17346;DHT22;8790;53.590;10.002;2022-10-14T12:04:35;14.40;99.90
17346;DHT22;8790;53.590;10.002;2022-10-14T12:07:12;14.40;99.90
17346;DHT22;8790;53.590;10.002;2022-10-14T12:09:51;14.50;99.90
17346;DHT22;8790;53.590;10.002;2022-10-14T12:12:26;14.50;99.90
17346;DHT22;8790;53.590;10.002;2022-10-14T12:15:03;14.50;99.90
17346;DHT22;8790;53.590;10.002;2022-10-14T12:17:41;14.50;99.90
17346;DHT22;8790;53.590;10.002;2022-10-14T12:20:21;14.50;99.90
17346;DHT22;8790;53.590;10.002;2022-10-14T12:22:56;14.50;99.90
17346;DHT22;8790;53.590;10.002;2022-10-14T12:25:32;14.50;99.90
17346;DHT22;8790;53.590;10.002;2022-10-14T12:28:08;14.50;99.90
17346;DHT22;8790;53.590;10.002;2022-10-14T12:30:41;14.50;99.90
17346;DHT22;8790;53.590;10.002;2022-10-14T12:33:14;14.50;99.90
17346;DHT22;8790;53.590;10.002;2022-10-14T12:35:53;14.50;99.90
17346;DHT22;8790;53.590;10.002;2022-10-14T12:38:29;14.50;99.90
17346;DHT22;8790;53.590;10.002;2022-10-14T12:41:32;14.50;99.90
17346;DHT22;8790;53.590;10.002;2022-10-14T12:44:11;14.50;99.90
17346;DHT22;8790;53.590;10.002;2022-10-14T12:46:47;14.50;99.90
17346;DHT22;8790;53.590;10.002;2022-10-14T12:49:26;14.50;99.90
17346;DHT22;8790;53.590;10.002;2022-10-14T12:52:01;14.50;99.90
17346;DHT22;8790;53.590;10.002;2022-10-14T12:54:36;14.50;99.90
17346;DHT22;8790;53.590;10.002;2022-10-14T12:57:23;14.60;99.90
17346;DHT22;8790;53.590;10.002;2022-10-14T12:59:59;14.60;99.90
17346;DHT22;8790;53.590;10.002;2022-10-14T13:02:35;14.70;99.90
17346;DHT22;8790;53.590;10.002;2022-10-14T13:05:21;14.70;99.90
17346;DHT22;8790;53.590;10.002;2022-10-14T13:08:09;14.70;99.90
17346;DHT22;8790;53.590;10.002;2022-10-14T13:10:44;14.70;99.90
17346;DHT22;8790;53.590;10.002;2022-10-14T13:13:46;14.70;99.90
17346;DHT22;8790;53.590;10.002;2022-10-14T13:16:54;14.60;99.90
17346;DHT22;8790;53.590;10.002;2022-10-14T13:19:44;14.60;99.90
17346;DHT22;8790;53.590;10.002;2022-10-14T13:22:37;14.60;99.90
17346;DHT22;8790;53.590;10.002;2022-10-14T13:25:13;14.60;99.90
17346;DHT22;8790;53.590;10.002;2022-10-14T13:28:11;14.60;99.90
17346;DHT22;8790;53.590;10.002;2022-10-14T13:30:53;14.60;99.90
17346;DHT22;8790;53.590;10.002;2022-10-14T13:33:32;14.60;99.90
17346;DHT22;8790;53.590;10.002;2022-10-14T13:36:12;14.50;99.90
17346;DHT22;8790;53.590;10.002;2022-10-14T13:38:51;14.50;99.90
17346;DHT22;8790;53.590;10.002;2022-10-14T13:41:23;14.50;99.90
17346;DHT22;8790;53.590;10.002;2022-10-14T13:44:01;14.50;99.90
17346;DHT22;8790;53.590;10.002;2022-10-14T13:46:35;14.50;99.90
17346;DHT22;8790;53.590;10.002;2022-10-14T13:49:15;14.50;99.90
17346;DHT22;8790;53.590;10.002;2022-10-14T13:51:50;14.50;99.90
17346;DHT22;8790;53.590;10.002;2022-10-14T13:54:23;14.50;99.90
17346;DHT22;8790;53.590;10.002;2022-10-14T13:56:57;14.40;99.90
17346;DHT22;8790;53.590;10.002;2022-10-14T13:59:30;14.50;99.90
17346;DHT22;8790;53.590;10.002;2022-10-14T14:02:02;14.50;99.90
17346;DHT22;8790;53.590;10.002;2022-10-14T14:04:35;14.50;99.90
17346;DHT22;8790;53.590;10.002;2022-10-14T14:07:15;14.50;99.90
17346;DHT22;8790;53.590;10.002;2022-10-14T14:09:49;14.50;99.90
17346;DHT22;8790;53.590;10.002;2022-10-14T14:12:21;14.50;99.90
17346;DHT22;8790;53.590;10.002;2022-10-14T14:14:56;14.50;99.90
17346;DHT22;8790;53.590;10.002;2022-10-14T14:17:29;14.50;99.90
17346;DHT22;8790;53.590;10.002;2022-10-14T14:20:08;14.50;99.90
17346;DHT22;8790;53.590;10.002;2022-10-14T14:22:42;14.50;99.90
17346;DHT22;8790;53.590;10.002;2022-10-14T14:25:21;14.50;99.90
17346;DHT22;8790;53.590;10.002;2022-10-14T14:27:55;14.50;99.90
17346;DHT22;8790;53.590;10.002;2022-10-14T14:30:28;14.50;99.90
17346;DHT22;8790;53.590;10.002;2022-10-14T14:33:03;14.50;99.90
17346;DHT22;8790;53.590;10.002;2022-10-14T14:35:35;14.50;99.90
17346;DHT22;8790;53.590;10.002;2022-10-14T14:41:13;14.50;99.90
17346;DHT22;8790;53.590;10.002;2022-10-14T14:43:48;14.50;99.90
17346;DHT22;8790;53.590;10.002;2022-10-14T14:46:29;14.50;99.90
17346;DHT22;8790;53.590;10.002;2022-10-14T14:49:06;14.50;99.90
17346;DHT22;8790;53.590;10.002;2022-10-14T14:51:39;14.50;99.90
17346;DHT22;8790;53.590;10.002;2022-10-14T14:54:16;14.60;99.90
17346;DHT22;8790;53.590;10.002;2022-10-14T14:56:53;14.60;99.90
17346;DHT22;8790;53.590;10.002;2022-10-14T14:59:29;14.60;99.90
17346;DHT22;8790;53.590;10.002;2022-10-14T15:02:12;14.60;99.90
17346;DHT22;8790;53.590;10.002;2022-10-14T15:04:46;14.60;99.90
17346;DHT22;8790;53.590;10.002;2022-10-14T15:07:30;14.60;99.90
17346;DHT22;8790;53.590;10.002;2022-10-14T15:10:05;14.60;99.90
17346;DHT22;8790;53.590;10.002;2022-10-14T15:12:38;14.60;99.90
17346;DHT22;8790;53.590;10.002;2022-10-14T15:15:25;14.60;99.90
17346;DHT22;8790;53.590;10.002;2022-10-14T15:18:11;14.60;99.90
17346;DHT22;8790;53.590;10.002;2022-10-14T15:20:44;14.60;99.90
17346;DHT22;8790;53.590;10.002;2022-10-14T15:23:39;14.60;99.90
17346;DHT22;8790;53.590;10.002;2022-10-14T15:26:22;14.60;99.90
17346;DHT22;8790;53.590;10.002;2022-10-14T15:29:19;14.60;99.90
17346;DHT22;8790;53.590;10.002;2022-10-14T15:32:05;14.60;99.90
17346;DHT22;8790;53.590;10.002;2022-10-14T15:34:42;14.60;99.90
17346;DHT22;8790;53.590;10.002;2022-10-14T15:37:14;14.60;99.90
17346;DHT22;8790;53.590;10.002;2022-10-14T15:40:00;14.60;99.90
17346;DHT22;8790;53.590;10.002;2022-10-14T15:42:32;14.60;99.90
17346;DHT22;8790;53.590;10.002;2022-10-14T15:45:07;14.60;99.90
17346;DHT22;8790;53.590;10.002;2022-10-14T15:47:39;14.60;99.90
17346;DHT22;8790;53.590;10.002;2022-10-14T15:50:15;14.60;99.90
17346;DHT22;8790;53.590;10.002;2022-10-14T15:52:54;14.70;99.90
17346;DHT22;8790;53.590;10.002;2022-10-14T15:55:27;14.60;99.90
17346;DHT22;8790;53.590;10.002;2022-10-14T15:58:03;14.60;99.90
17346;DHT22;8790;53.590;10.002;2022-10-14T16:00:36;14.60;99.90
17346;DHT22;8790;53.590;10.002;2022-10-14T16:03:09;14.60;99.90
17346;DHT22;8790;53.590;10.002;2022-10-14T16:05:41;14.60;99.90
17346;DHT22;8790;53.590;10.002;2022-10-14T16:08:16;14.60;99.90
17346;DHT22;8790;53.590;10.002;2022-10-14T16:10:48;14.60;99.90
17346;DHT22;8790;53.590;10.002;2022-10-14T16:13:20;14.60;99.90
17346;DHT22;8790;53.590;10.002;2022-10-14T16:15:56;14.60;99.90
17346;DHT22;8790;53.590;10.002;2022-10-14T16:18:30;14.60;99.90
17346;DHT22;8790;53.590;10.002;2022-10-14T16:21:02;14.70;99.90
17346;DHT22;8790;53.590;10.002;2022-10-14T16:23:33;14.60;99.90
17346;DHT22;8790;53.590;10.002;2022-10-14T16:26:06;14.60;99.90
17346;DHT22;8790;53.590;10.002;2022-10-14T16:28:38;14.70;99.90
17346;DHT22;8790;53.590;10.002;2022-10-14T16:31:13;14.60;99.90
17346;DHT22;8790;53.590;10.002;2022-10-14T16:33:48;14.60;99.90
17346;DHT22;8790;53.590;10.002;2022-10-14T16:36:20;14.60;99.90
17346;DHT22;8790;53.590;10.002;2022-10-14T16:38:53;14.60;99.90
17346;DHT22;8790;53.590;10.002;2022-10-14T16:41:25;14.70;99.90